createdAt,value
2022-10-20T00:00:16.198Z,97.94
2022-10-20T00:01:16.186Z,97.84
2022-10-20T00:02:16.203Z,98.15
2022-10-20T00:03:16.163Z,98.15
2022-10-20T00:04:16.174Z,98.25
2022-10-20T00:05:16.145Z,97.74
2022-10-20T00:06:16.132Z,98.09
2022-10-20T00:07:16.121Z,98.46
2022-10-20T00:08:16.129Z,98.09
2022-10-20T00:09:16.098Z,98.71
2022-10-20T00:10:16.082Z,98.40
2022-10-20T00:11:16.077Z,98.50
2022-10-20T00:12:16.060Z,98.50
2022-10-20T00:13:16.075Z,98.92
2022-10-20T00:14:16.041Z,98.92
2022-10-20T00:15:16.048Z,98.61
2022-10-20T00:16:16.017Z,98.75
2022-10-20T00:17:16.009Z,98.92
2022-10-20T00:18:15.993Z,99.02
2022-10-20T00:19:16.004Z,99.02
2022-10-20T00:20:15.973Z,98.92
2022-10-20T00:21:15.961Z,99.02
2022-10-20T00:22:15.950Z,98.82
2022-10-20T00:23:15.943Z,98.82
2022-10-20T00:24:15.946Z,99.02
2022-10-20T00:25:15.915Z,99.02
2022-10-20T00:26:15.907Z,99.33
2022-10-20T00:27:15.894Z,99.49
2022-10-20T00:28:15.889Z,99.18
2022-10-20T00:29:15.892Z,99.04
2022-10-20T00:30:15.859Z,99.39
2022-10-20T00:31:15.865Z,99.18
2022-10-20T00:32:15.838Z,99.49
2022-10-20T00:33:15.825Z,99.39
2022-10-20T00:34:15.836Z,99.18
2022-10-20T00:35:16.116Z,99.18
2022-10-20T00:36:15.791Z,99.18
2022-10-20T00:37:15.779Z,99.18
2022-10-20T00:38:15.847Z,99.29
2022-10-20T00:39:15.776Z,99.29
2022-10-20T00:40:15.745Z,99.29
2022-10-20T00:41:15.733Z,99.29
2022-10-20T00:42:15.728Z,99.49
2022-10-20T00:43:15.712Z,99.49
2022-10-20T00:44:15.729Z,99.54
2022-10-20T00:45:15.689Z,99.49
2022-10-20T00:46:15.682Z,99.70
2022-10-20T00:47:15.686Z,99.23
2022-10-20T00:48:15.656Z,99.02
2022-10-20T00:49:15.644Z,99.08
2022-10-20T00:50:15.651Z,99.23
2022-10-20T00:51:15.623Z,99.64
2022-10-20T00:52:15.610Z,99.74
2022-10-20T00:53:15.599Z,99.74
2022-10-20T00:54:15.586Z,99.95
2022-10-20T00:55:15.594Z,99.85
2022-10-20T00:56:15.564Z,99.64
2022-10-20T00:57:15.552Z,99.64
2022-10-20T00:58:15.540Z,99.74
2022-10-20T00:59:15.535Z,99.85
2022-10-20T01:00:15.541Z,99.74
2022-10-20T01:01:15.574Z,99.85
2022-10-20T01:02:15.498Z,99.85
2022-10-20T01:03:15.503Z,99.74
2022-10-20T01:04:15.472Z,99.85
2022-10-20T01:05:15.483Z,99.39
2022-10-20T01:07:15.440Z,99.80
2022-10-20T01:08:15.431Z,99.99
2022-10-20T01:09:15.427Z,99.99
2022-10-20T01:10:15.427Z,99.76
2022-10-20T01:11:15.396Z,99.99
2022-10-20T01:12:15.381Z,99.99
2022-10-20T01:13:15.373Z,99.99
2022-10-20T01:14:15.360Z,99.99
2022-10-20T01:15:15.427Z,99.99
2022-10-20T01:16:15.360Z,99.99
2022-10-20T01:17:15.327Z,99.99
2022-10-20T01:18:15.317Z,99.99
2022-10-20T01:19:15.325Z,99.99
2022-10-20T01:20:15.291Z,99.99
2022-10-20T01:21:15.287Z,99.99
2022-10-20T01:22:15.288Z,99.99
2022-10-20T01:23:15.281Z,99.99
2022-10-20T01:24:15.319Z,99.99
2022-10-20T01:25:15.234Z,99.99
2022-10-20T01:26:15.243Z,99.99
2022-10-20T01:27:15.252Z,99.99
2022-10-20T01:28:15.206Z,99.99
2022-10-20T01:29:15.188Z,99.99
2022-10-20T01:30:15.181Z,99.99
2022-10-20T01:31:15.185Z,99.99
2022-10-20T01:32:15.156Z,99.99
2022-10-20T01:33:15.189Z,99.82
2022-10-20T01:34:15.133Z,99.77
2022-10-20T01:35:15.158Z,99.87
2022-10-20T01:36:15.111Z,99.77
2022-10-20T01:37:28.210Z,99.66
2022-10-20T01:38:16.091Z,99.71
2022-10-20T01:39:15.077Z,99.61
2022-10-20T01:40:15.097Z,99.46
2022-10-20T01:41:15.054Z,99.35
2022-10-20T01:42:15.064Z,99.46
2022-10-20T01:43:15.040Z,99.46
2022-10-20T01:44:15.030Z,99.35
2022-10-20T01:45:15.009Z,99.62
2022-10-20T01:46:15.038Z,98.75
2022-10-20T01:47:15.010Z,98.85
2022-10-20T01:48:14.975Z,98.75
2022-10-20T01:49:14.962Z,98.65
2022-10-20T01:50:14.953Z,98.44
2022-10-20T01:51:14.956Z,98.49
2022-10-20T01:52:14.954Z,98.54
2022-10-20T01:53:14.919Z,98.85
2022-10-20T01:54:14.946Z,98.18
2022-10-20T01:55:14.898Z,98.28
2022-10-20T01:56:14.887Z,98.18
2022-10-20T01:57:14.895Z,98.38
2022-10-20T01:58:14.866Z,97.86
2022-10-20T01:59:14.853Z,97.76
2022-10-20T02:00:14.844Z,98.07
2022-10-20T02:01:14.888Z,97.97
2022-10-20T02:02:14.840Z,97.97
2022-10-20T02:03:14.805Z,98.01
2022-10-20T02:04:14.818Z,98.01
2022-10-20T02:05:14.789Z,98.01
2022-10-20T02:06:14.772Z,98.01
2022-10-20T02:07:14.778Z,98.01
2022-10-20T02:08:14.770Z,98.01
2022-10-20T02:09:14.752Z,98.22
2022-10-20T02:10:14.727Z,98.11
2022-10-20T02:11:14.725Z,98.01
2022-10-20T02:12:14.733Z,98.01
2022-10-20T02:13:14.711Z,98.01
2022-10-20T02:14:14.682Z,98.01
2022-10-20T02:15:14.676Z,98.11
2022-10-20T02:16:14.662Z,98.01
2022-10-20T02:17:14.646Z,98.01
2022-10-20T02:18:14.662Z,97.71
2022-10-20T02:19:14.629Z,98.01
2022-10-20T02:20:14.614Z,98.11
2022-10-20T02:21:14.641Z,98.01
2022-10-20T02:22:14.592Z,97.97
2022-10-20T02:23:14.607Z,97.81
2022-10-20T02:24:14.593Z,97.81
2022-10-20T02:25:14.561Z,98.11
2022-10-20T02:26:14.558Z,98.22
2022-10-20T02:27:14.533Z,98.11
2022-10-20T02:28:14.564Z,98.11
2022-10-20T02:29:14.537Z,98.22
2022-10-20T02:30:14.523Z,98.11
2022-10-20T02:31:14.489Z,98.11
2022-10-20T02:32:14.485Z,98.11
2022-10-20T02:33:14.490Z,98.11
2022-10-20T02:34:14.457Z,97.39
2022-10-20T02:35:14.452Z,98.01
2022-10-20T02:36:14.437Z,98.11
2022-10-20T02:37:14.452Z,98.11
2022-10-20T02:38:14.414Z,98.22
2022-10-20T02:39:14.467Z,98.11
2022-10-20T02:40:14.390Z,98.01
2022-10-20T02:41:14.400Z,98.06
2022-10-20T02:42:14.368Z,98.16
2022-10-20T02:43:14.355Z,97.75
2022-10-20T02:44:14.370Z,98.06
2022-10-20T02:45:14.334Z,98.37
2022-10-20T02:46:17.608Z,98.06
2022-10-20T02:47:14.308Z,97.75
2022-10-20T02:48:14.345Z,98.16
2022-10-20T02:49:14.309Z,98.16
2022-10-20T02:50:14.328Z,97.64
2022-10-20T02:51:14.264Z,98.06
2022-10-20T02:52:14.260Z,98.06
2022-10-20T02:53:14.255Z,98.06
2022-10-20T02:54:14.259Z,98.00
2022-10-20T02:55:14.313Z,98.10
2022-10-20T02:56:14.233Z,97.69
2022-10-20T02:57:14.197Z,97.79
2022-10-20T02:58:14.187Z,98.00
2022-10-20T02:59:14.221Z,98.00
2022-10-20T03:00:14.225Z,98.16
2022-10-20T03:01:14.222Z,98.06
2022-10-20T03:02:14.141Z,98.27
2022-10-20T03:03:14.130Z,97.81
2022-10-20T03:04:14.212Z,97.76
2022-10-20T03:05:14.128Z,97.55
2022-10-20T03:06:14.099Z,97.55
2022-10-20T03:07:14.084Z,97.45
2022-10-20T03:08:14.077Z,96.98
2022-10-20T03:09:14.063Z,96.94
2022-10-20T03:10:14.071Z,97.25
2022-10-20T03:11:14.055Z,96.94
2022-10-20T03:12:14.028Z,96.94
2022-10-20T03:13:14.015Z,97.14
2022-10-20T03:14:14.037Z,97.04
2022-10-20T03:15:13.999Z,96.83
2022-10-20T03:16:14.006Z,96.94
2022-10-20T03:17:13.977Z,96.83
2022-10-20T03:18:13.960Z,96.73
2022-10-20T03:19:13.949Z,96.73
2022-10-20T03:20:13.960Z,96.98
2022-10-20T03:21:13.927Z,96.83
2022-10-20T03:22:13.915Z,96.88
2022-10-20T03:23:16.390Z,96.98
2022-10-20T03:24:14.891Z,96.98
2022-10-20T03:25:13.915Z,96.82
2022-10-20T03:26:13.882Z,96.61
2022-10-20T03:27:13.878Z,96.82
2022-10-20T03:28:13.867Z,96.92
2022-10-20T03:29:13.835Z,96.92
2022-10-20T03:30:13.830Z,96.92
2022-10-20T03:31:13.837Z,97.02
2022-10-20T03:32:13.851Z,96.98
2022-10-20T03:33:13.790Z,96.77
2022-10-20T03:34:13.780Z,96.73
2022-10-20T03:35:13.767Z,96.94
2022-10-20T03:36:13.831Z,96.83
2022-10-20T03:37:13.747Z,96.62
2022-10-20T03:38:13.734Z,96.52
2022-10-20T03:39:13.725Z,96.73
2022-10-20T03:40:13.715Z,96.42
2022-10-20T03:41:13.721Z,96.11
2022-10-20T03:42:13.715Z,96.52
2022-10-20T03:43:13.694Z,96.01
2022-10-20T03:44:13.669Z,95.90
2022-10-20T03:45:16.292Z,95.90
2022-10-20T03:46:13.664Z,96.42
2022-10-20T03:47:13.634Z,96.06
2022-10-20T03:48:13.624Z,96.37
2022-10-20T03:49:13.627Z,96.17
2022-10-20T03:50:13.601Z,96.17
2022-10-20T03:51:13.606Z,96.37
2022-10-20T03:52:13.577Z,95.76
2022-10-20T03:53:13.565Z,95.45
2022-10-20T03:54:13.567Z,95.80
2022-10-20T03:55:13.544Z,95.34
2022-10-20T03:56:13.564Z,95.24
2022-10-20T03:57:13.521Z,95.34
2022-10-20T03:58:13.513Z,95.24
2022-10-20T03:59:13.530Z,95.24
2022-10-20T04:00:13.509Z,95.03
2022-10-20T04:01:13.670Z,95.65
2022-10-20T04:02:13.497Z,95.14
2022-10-20T04:03:13.452Z,95.03
2022-10-20T04:04:13.441Z,95.24
2022-10-20T04:05:13.436Z,95.65
2022-10-20T04:06:13.424Z,94.93
2022-10-20T04:07:13.429Z,95.24
2022-10-20T04:09:13.455Z,95.34
2022-10-20T04:10:13.377Z,95.34
2022-10-20T04:11:13.361Z,95.28
2022-10-20T04:12:13.403Z,95.39
2022-10-20T04:13:13.342Z,95.70
2022-10-20T04:14:13.328Z,95.39
2022-10-20T04:15:13.333Z,95.39
2022-10-20T04:16:13.308Z,95.07
2022-10-20T04:17:13.296Z,95.28
2022-10-20T04:18:13.305Z,95.90
2022-10-20T04:19:13.269Z,95.39
2022-10-20T04:20:13.263Z,95.39
2022-10-20T04:21:13.248Z,95.90
2022-10-20T04:22:13.254Z,95.49
2022-10-20T04:23:13.250Z,96.01
2022-10-20T04:24:13.242Z,95.80
2022-10-20T04:25:13.205Z,95.53
2022-10-20T04:26:13.197Z,96.47
2022-10-20T04:27:13.183Z,96.47
2022-10-20T04:28:13.193Z,96.67
2022-10-20T04:29:13.158Z,96.36
2022-10-20T04:30:13.148Z,96.20
2022-10-20T04:31:13.162Z,96.20
2022-10-20T04:32:13.131Z,96.20
2022-10-20T04:33:13.137Z,96.20
2022-10-20T04:34:13.105Z,96.72
2022-10-20T04:35:13.098Z,96.72
2022-10-20T04:36:13.091Z,96.24
2022-10-20T04:37:13.070Z,97.07
2022-10-20T04:38:13.084Z,97.07
2022-10-20T04:39:13.049Z,96.92
2022-10-20T04:40:13.039Z,96.86
2022-10-20T04:41:13.026Z,96.82
2022-10-20T04:42:13.015Z,97.02
2022-10-20T04:43:13.024Z,97.23
2022-10-20T04:44:12.995Z,96.47
2022-10-20T04:45:12.978Z,96.47
2022-10-20T04:46:12.972Z,97.08
2022-10-20T04:47:13.021Z,96.88
2022-10-20T04:48:12.967Z,96.98
2022-10-20T04:49:12.935Z,96.88
2022-10-20T04:50:12.937Z,96.88
2022-10-20T04:51:12.934Z,96.56
2022-10-20T04:52:12.903Z,96.98
2022-10-20T04:53:12.889Z,96.73
2022-10-20T04:54:12.881Z,95.95
2022-10-20T04:55:12.895Z,96.67
2022-10-20T04:56:12.868Z,96.42
2022-10-20T04:57:12.851Z,96.11
2022-10-20T04:58:12.835Z,96.21
2022-10-20T04:59:13.786Z,96.42
2022-10-20T05:00:12.814Z,96.15
2022-10-20T05:01:12.817Z,96.56
2022-10-20T05:02:12.793Z,96.21
2022-10-20T05:03:12.799Z,96.52
2022-10-20T05:04:12.787Z,95.59
2022-10-20T05:05:12.759Z,96.05
2022-10-20T05:06:12.743Z,95.84
2022-10-20T05:07:12.893Z,95.84
2022-10-20T05:08:12.720Z,95.53
2022-10-20T05:09:12.792Z,95.84
2022-10-20T05:10:12.698Z,95.84
2022-10-20T05:11:12.704Z,95.89
2022-10-20T05:12:12.676Z,96.09
2022-10-20T05:13:12.720Z,96.09
2022-10-20T05:14:12.660Z,95.68
2022-10-20T05:15:12.641Z,95.57
2022-10-20T05:16:12.633Z,96.86
2022-10-20T05:17:12.619Z,96.20
2022-10-20T05:18:12.611Z,96.41
2022-10-20T05:19:12.642Z,96.20
2022-10-20T05:20:12.584Z,96.55
2022-10-20T05:21:12.571Z,96.66
2022-10-20T05:22:12.590Z,96.82
2022-10-20T05:23:12.552Z,96.66
2022-10-20T05:24:15.457Z,96.76
2022-10-20T05:25:35.138Z,96.86
2022-10-20T05:26:13.518Z,96.66
2022-10-20T05:27:12.525Z,96.51
2022-10-20T05:28:12.508Z,96.14
2022-10-20T05:29:12.484Z,96.66
2022-10-20T05:30:12.477Z,96.86
2022-10-20T05:31:12.485Z,97.17
2022-10-20T05:32:12.460Z,97.32
2022-10-20T05:33:12.459Z,97.22
2022-10-20T05:34:12.429Z,97.11
2022-10-20T05:35:12.436Z,96.76
2022-10-20T05:36:12.405Z,97.07
2022-10-20T05:37:12.414Z,97.07
2022-10-20T05:38:12.384Z,97.63
2022-10-20T05:39:12.368Z,97.59
2022-10-20T05:40:12.362Z,97.79
2022-10-20T05:41:12.348Z,97.69
2022-10-20T05:42:12.359Z,97.69
2022-10-20T05:43:12.327Z,97.28
2022-10-20T05:44:12.315Z,97.28
2022-10-20T05:45:12.304Z,97.23
2022-10-20T05:46:12.313Z,97.49
2022-10-20T05:47:12.305Z,97.85
2022-10-20T05:48:12.271Z,97.38
2022-10-20T05:49:12.257Z,97.38
2022-10-20T05:50:12.249Z,97.38
2022-10-20T05:51:14.765Z,97.28
2022-10-20T05:52:12.222Z,97.23
2022-10-20T05:53:12.213Z,97.28
2022-10-20T05:54:12.203Z,97.38
2022-10-20T05:55:12.191Z,97.38
2022-10-20T05:56:12.198Z,97.38
2022-10-20T05:57:12.168Z,97.17
2022-10-20T05:58:12.154Z,97.89
2022-10-20T05:59:12.165Z,97.38
2022-10-20T06:00:12.136Z,97.28
2022-10-20T06:01:12.132Z,97.38
2022-10-20T06:02:12.117Z,97.69
2022-10-20T06:03:13.946Z,97.38
2022-10-20T06:04:13.107Z,97.38
2022-10-20T06:05:12.077Z,97.38
2022-10-20T06:06:12.065Z,97.49
2022-10-20T06:07:12.074Z,97.38
2022-10-20T06:08:12.048Z,97.33
2022-10-20T06:09:12.056Z,97.79
2022-10-20T06:10:12.042Z,97.64
2022-10-20T06:11:12.012Z,97.64
2022-10-20T06:12:12.027Z,97.02
2022-10-20T06:13:11.987Z,97.08
2022-10-20T06:14:11.974Z,96.98
2022-10-20T06:15:11.965Z,97.08
2022-10-20T06:16:11.952Z,96.98
2022-10-20T06:17:11.966Z,96.88
2022-10-20T06:18:11.931Z,96.98
2022-10-20T06:19:11.926Z,96.05
2022-10-20T06:20:11.909Z,96.56
2022-10-20T06:21:11.896Z,96.67
2022-10-20T06:22:11.907Z,96.67
2022-10-20T06:23:11.892Z,96.67
2022-10-20T06:24:11.885Z,96.67
2022-10-20T06:25:11.854Z,96.77
2022-10-20T06:26:11.839Z,96.15
2022-10-20T06:27:11.850Z,96.15
2022-10-20T06:28:11.815Z,96.36
2022-10-20T06:29:11.827Z,96.42
2022-10-20T06:30:11.798Z,96.47
2022-10-20T06:31:11.784Z,95.70
2022-10-20T06:32:11.795Z,95.80
2022-10-20T06:33:11.763Z,95.28
2022-10-20T06:34:11.748Z,95.80
2022-10-20T06:35:11.765Z,95.39
2022-10-20T06:36:11.729Z,95.59
2022-10-20T06:37:11.742Z,95.18
2022-10-20T06:38:11.703Z,94.87
2022-10-20T06:39:11.718Z,94.97
2022-10-20T06:40:11.681Z,95.45
2022-10-20T06:41:11.672Z,95.55
2022-10-20T06:42:12.334Z,95.24
2022-10-20T06:43:11.653Z,95.14
2022-10-20T06:44:11.660Z,95.24
2022-10-20T06:45:14.353Z,95.03
2022-10-20T06:46:12.611Z,94.42
2022-10-20T06:47:11.608Z,95.24
2022-10-20T06:48:11.595Z,94.52
2022-10-20T06:49:11.609Z,94.42
2022-10-20T06:50:11.570Z,94.42
2022-10-20T06:51:11.569Z,94.21
2022-10-20T06:53:11.540Z,94.57
2022-10-20T06:54:11.547Z,94.62
2022-10-20T06:55:11.535Z,94.37
2022-10-20T06:56:11.526Z,93.75
2022-10-20T06:57:11.512Z,93.81
2022-10-20T06:58:11.478Z,93.19
2022-10-20T06:59:11.471Z,93.09
2022-10-20T07:00:11.455Z,92.99
2022-10-20T07:01:11.476Z,93.30
2022-10-20T07:02:11.437Z,93.09
2022-10-20T07:03:11.455Z,93.30
2022-10-20T07:04:11.412Z,93.05
2022-10-20T07:05:11.402Z,93.05
2022-10-20T07:06:11.389Z,92.74
2022-10-20T07:07:11.402Z,92.63
2022-10-20T07:08:11.367Z,92.63
2022-10-20T07:09:11.440Z,92.74
2022-10-20T07:10:11.346Z,92.94
2022-10-20T07:11:11.348Z,92.18
2022-10-20T07:12:11.347Z,91.56
2022-10-20T07:13:11.310Z,91.66
2022-10-20T07:14:11.318Z,91.25
2022-10-20T07:15:11.287Z,90.94
2022-10-20T07:16:11.279Z,91.66
2022-10-20T07:17:11.291Z,91.11
2022-10-20T07:18:11.252Z,91.21
2022-10-20T07:19:11.252Z,90.69
2022-10-20T07:20:11.232Z,90.69
2022-10-20T07:21:11.246Z,90.59
2022-10-20T07:22:11.207Z,90.39
2022-10-20T07:23:11.197Z,90.59
2022-10-20T07:24:11.204Z,90.28
2022-10-20T07:25:11.201Z,89.83
2022-10-20T07:26:11.208Z,89.52
2022-10-20T07:27:11.192Z,89.83
2022-10-20T07:28:11.164Z,89.22
2022-10-20T07:29:11.133Z,89.11
2022-10-20T07:30:11.116Z,90.24
2022-10-20T07:31:11.222Z,89.89
2022-10-20T07:32:11.096Z,89.79
2022-10-20T07:33:11.085Z,88.96
2022-10-20T07:34:25.115Z,89.22
2022-10-20T07:35:12.060Z,88.49
2022-10-20T07:36:11.073Z,88.66
2022-10-20T07:37:11.042Z,88.45
2022-10-20T07:38:11.049Z,87.94
2022-10-20T07:39:11.016Z,87.90
2022-10-20T07:40:11.100Z,87.18
2022-10-20T07:41:10.999Z,86.87
2022-10-20T07:42:10.985Z,86.66
2022-10-20T07:43:10.996Z,86.97
2022-10-20T07:44:11.299Z,87.18
2022-10-20T07:45:10.954Z,86.97
2022-10-20T07:46:10.936Z,86.66
2022-10-20T07:47:10.934Z,86.46
2022-10-20T07:48:10.948Z,86.77
2022-10-20T07:49:39.278Z,86.83
2022-10-20T07:50:11.890Z,86.93
2022-10-20T07:51:10.906Z,87.04
2022-10-20T07:52:10.870Z,86.62
2022-10-20T07:53:10.860Z,86.62
2022-10-20T07:54:10.870Z,86.87
2022-10-20T07:55:17.915Z,86.52
2022-10-20T07:56:11.822Z,86.32
2022-10-20T07:57:10.814Z,86.62
2022-10-20T07:58:10.804Z,86.72
2022-10-20T07:59:10.839Z,86.62
2022-10-20T08:00:10.781Z,86.99
2022-10-20T08:01:10.773Z,87.92
2022-10-20T08:02:10.825Z,87.61
2022-10-20T08:03:10.758Z,87.88
2022-10-20T08:04:10.750Z,87.57
2022-10-20T08:05:10.746Z,87.05
2022-10-20T08:06:10.713Z,86.27
2022-10-20T08:07:10.703Z,86.33
2022-10-20T08:08:10.718Z,85.68
2022-10-20T08:09:10.678Z,86.65
2022-10-20T08:10:10.687Z,86.09
2022-10-20T08:11:10.678Z,85.62
2022-10-20T08:12:10.644Z,85.99
2022-10-20T08:13:10.636Z,86.19
2022-10-20T08:14:10.619Z,85.47
2022-10-20T08:15:10.666Z,85.47
2022-10-20T08:16:10.641Z,84.66
2022-10-20T08:17:10.628Z,84.76
2022-10-20T08:18:14.554Z,85.33
2022-10-20T08:19:14.586Z,83.73
2022-10-20T08:20:11.548Z,84.34
2022-10-20T08:21:10.543Z,84.00
2022-10-20T08:22:10.530Z,84.25
2022-10-20T08:23:10.520Z,84.25
2022-10-20T08:24:10.508Z,84.31
2022-10-20T08:25:10.546Z,84.20
2022-10-20T08:26:11.450Z,84.41
2022-10-20T08:27:10.474Z,84.61
2022-10-20T08:28:10.462Z,84.52
2022-10-20T08:29:10.450Z,84.58
2022-10-20T08:30:23.433Z,84.99
2022-10-20T08:31:11.442Z,84.27
2022-10-20T08:32:10.420Z,84.27
2022-10-20T08:33:10.406Z,84.27
2022-10-20T08:34:10.401Z,83.55
2022-10-20T08:35:10.404Z,83.86
2022-10-20T08:36:10.372Z,83.86
2022-10-20T08:37:10.424Z,84.03
2022-10-20T08:38:10.363Z,83.51
2022-10-20T08:39:10.338Z,84.09
2022-10-20T08:40:10.361Z,84.60
2022-10-20T08:41:10.318Z,83.95
2022-10-20T08:42:10.302Z,82.92
2022-10-20T08:43:10.314Z,81.43
2022-10-20T08:44:10.279Z,81.29
2022-10-20T08:45:10.276Z,82.31
2022-10-20T08:46:10.317Z,82.21
2022-10-20T08:47:10.300Z,82.41
2022-10-20T08:48:10.235Z,81.56
2022-10-20T08:49:10.230Z,81.18
2022-10-20T08:50:10.242Z,82.57
2022-10-20T08:51:10.205Z,82.75
2022-10-20T08:52:10.189Z,81.24
2022-10-20T08:53:10.180Z,81.21
2022-10-20T08:54:10.168Z,81.51
2022-10-20T08:55:10.234Z,81.17
2022-10-20T08:56:10.164Z,81.07
2022-10-20T08:57:10.134Z,80.66
2022-10-20T08:58:10.125Z,81.65
2022-10-20T08:59:10.113Z,81.03
2022-10-20T09:00:10.120Z,81.44
2022-10-20T09:01:10.111Z,79.91
2022-10-20T09:02:10.170Z,79.80
2022-10-20T09:03:10.082Z,79.19
2022-10-20T09:04:10.054Z,79.36
2022-10-20T09:05:12.019Z,79.77
2022-10-20T09:06:11.051Z,78.75
2022-10-20T09:07:10.024Z,78.88
2022-10-20T09:08:10.035Z,79.39
2022-10-20T09:09:10.125Z,79.77
2022-10-20T09:10:09.986Z,79.87
2022-10-20T09:11:09.975Z,80.18
2022-10-20T09:12:09.967Z,80.89
2022-10-20T09:13:09.973Z,79.87
2022-10-20T09:14:09.940Z,79.73
2022-10-20T09:15:09.932Z,79.63
2022-10-20T09:16:12.525Z,78.98
2022-10-20T09:17:11.595Z,79.18
2022-10-20T09:18:09.926Z,79.18
2022-10-20T09:19:09.949Z,79.90
2022-10-20T09:20:09.874Z,79.28
2022-10-20T09:21:09.865Z,79.39
2022-10-20T09:22:09.879Z,80.10
2022-10-20T09:23:28.354Z,80.16
2022-10-20T09:24:10.828Z,78.67
2022-10-20T09:25:09.817Z,79.25
2022-10-20T09:26:19.506Z,78.27
2022-10-20T09:27:10.794Z,78.06
2022-10-20T09:28:09.781Z,78.84
2022-10-20T09:29:14.117Z,78.84
2022-10-20T09:30:10.758Z,78.64
2022-10-20T09:31:09.775Z,78.43
2022-10-20T09:32:34.343Z,77.72
2022-10-20T09:33:10.726Z,77.82
2022-10-20T09:34:09.726Z,77.11
2022-10-20T09:35:09.721Z,76.97
2022-10-20T09:36:09.715Z,77.48
2022-10-20T09:37:09.683Z,77.64
2022-10-20T09:38:09.667Z,76.73
2022-10-20T09:39:09.658Z,76.73
2022-10-20T09:40:09.645Z,76.69
2022-10-20T09:41:09.658Z,76.39
2022-10-20T09:42:09.624Z,76.45
2022-10-20T09:43:09.636Z,75.74
2022-10-20T09:44:09.601Z,75.23
2022-10-20T09:45:09.590Z,76.28
2022-10-20T09:46:09.577Z,76.68
2022-10-20T09:47:09.567Z,74.65
2022-10-20T09:48:09.577Z,73.97
2022-10-20T09:49:09.566Z,73.77
2022-10-20T09:50:09.531Z,73.67
2022-10-20T09:51:09.592Z,75.46
2022-10-20T09:52:09.532Z,75.53
2022-10-20T09:53:09.499Z,74.18
2022-10-20T09:54:09.487Z,73.77
2022-10-20T09:55:09.500Z,73.74
2022-10-20T09:56:09.465Z,72.85
2022-10-20T09:57:09.454Z,72.96
2022-10-20T09:58:11.818Z,73.46
2022-10-20T09:59:09.429Z,72.38
2022-10-20T10:00:32.266Z,74.28
2022-10-20T10:01:10.485Z,74.24
2022-10-20T10:02:09.399Z,73.90
2022-10-20T10:03:09.407Z,72.62
2022-10-20T10:04:11.087Z,73.13
2022-10-20T10:05:09.362Z,74.10
2022-10-20T10:06:09.372Z,72.99
2022-10-20T10:07:09.378Z,74.27
2022-10-20T10:08:09.329Z,73.36
2022-10-20T10:09:09.370Z,72.58
2022-10-20T10:10:09.306Z,72.38
2022-10-20T10:11:09.315Z,72.62
2022-10-20T10:12:09.286Z,72.72
2022-10-20T10:13:09.279Z,73.94
2022-10-20T10:14:09.261Z,74.24
2022-10-20T10:15:09.270Z,73.53
2022-10-20T10:16:09.261Z,74.01
2022-10-20T10:17:09.225Z,73.39
2022-10-20T10:18:09.217Z,73.09
2022-10-20T10:19:09.265Z,74.41
2022-10-20T10:20:09.193Z,73.26
2022-10-20T10:21:09.200Z,72.58
2022-10-20T10:22:09.174Z,73.16
2022-10-20T10:23:09.175Z,72.78
2022-10-20T10:24:09.170Z,72.41
2022-10-20T10:25:09.136Z,73.02
2022-10-20T10:26:09.125Z,72.01
2022-10-20T10:27:09.113Z,72.01
2022-10-20T10:28:09.106Z,72.25
2022-10-20T10:29:09.112Z,72.01
2022-10-20T10:30:09.084Z,72.11
2022-10-20T10:31:09.072Z,72.78
2022-10-20T10:32:09.059Z,72.89
2022-10-20T10:33:09.066Z,72.85
2022-10-20T10:34:09.037Z,72.01
2022-10-20T10:35:09.025Z,70.93
2022-10-20T10:36:09.019Z,70.72
2022-10-20T10:37:09.100Z,71.06
2022-10-20T10:38:09.012Z,71.88
2022-10-20T10:39:08.998Z,71.47
2022-10-20T10:40:08.968Z,71.88
2022-10-20T10:41:08.956Z,71.67
2022-10-20T10:42:08.967Z,72.58
2022-10-20T10:43:08.934Z,71.97
2022-10-20T10:44:08.924Z,71.44
2022-10-20T10:45:09.186Z,71.73
2022-10-20T10:46:08.901Z,72.14
2022-10-20T10:47:08.908Z,71.84
2022-10-20T10:48:08.881Z,71.88
2022-10-20T10:49:08.864Z,72.17
2022-10-20T10:50:08.887Z,72.08
2022-10-20T10:51:08.845Z,72.78
2022-10-20T10:52:08.856Z,72.21
2022-10-20T10:53:08.819Z,72.82
2022-10-20T10:54:11.777Z,72.72
2022-10-20T10:55:11.715Z,73.43
2022-10-20T10:57:11.810Z,72.85
2022-10-20T10:58:08.806Z,73.25
2022-10-20T10:59:08.764Z,72.21
2022-10-20T11:00:08.743Z,73.12
2022-10-20T11:01:08.770Z,73.12
2022-10-20T11:02:08.726Z,71.97
2022-10-20T11:03:08.705Z,70.89
2022-10-20T11:04:08.696Z,71.67
2022-10-20T11:05:08.724Z,70.69
2022-10-20T11:06:08.672Z,70.69
2022-10-20T11:07:08.691Z,71.60
2022-10-20T11:08:08.651Z,71.97
2022-10-20T11:09:08.637Z,70.22
2022-10-20T11:10:08.648Z,70.18
2022-10-20T11:11:08.632Z,71.06
2022-10-20T11:12:08.604Z,70.36
2022-10-20T11:13:08.615Z,70.53
2022-10-20T11:14:08.672Z,68.80
2022-10-20T11:15:08.590Z,69.01
2022-10-20T11:16:08.570Z,68.51
2022-10-20T11:17:08.570Z,68.77
2022-10-20T11:18:08.537Z,68.77
2022-10-20T11:19:08.527Z,67.19
2022-10-20T11:20:08.513Z,68.94
2022-10-20T11:21:08.501Z,68.63
2022-10-20T11:22:10.577Z,67.55
2022-10-20T11:23:08.479Z,68.47
2022-10-20T11:24:08.470Z,68.97
2022-10-20T11:25:08.460Z,68.47
2022-10-20T11:26:08.468Z,68.97
2022-10-20T11:27:08.468Z,69.07
2022-10-20T11:28:08.426Z,69.01
2022-10-20T11:29:08.411Z,69.81
2022-10-20T11:30:08.402Z,70.79
2022-10-20T11:31:08.412Z,70.69
2022-10-20T11:32:08.384Z,70.46
2022-10-20T11:33:08.366Z,70.76
2022-10-20T11:34:08.355Z,68.43
2022-10-20T11:35:08.364Z,68.80
2022-10-20T11:36:08.337Z,67.93
2022-10-20T11:37:08.321Z,68.63
2022-10-20T11:38:08.310Z,68.63
2022-10-20T11:39:08.301Z,68.84
2022-10-20T11:40:08.827Z,68.43
2022-10-20T11:41:08.275Z,67.86
2022-10-20T11:42:08.266Z,68.97
2022-10-20T11:43:10.352Z,68.30
2022-10-20T11:44:08.253Z,68.47
2022-10-20T11:45:08.230Z,67.89
2022-10-20T11:46:08.242Z,68.02
2022-10-20T11:47:08.210Z,68.16
2022-10-20T11:48:08.217Z,68.46
2022-10-20T11:49:08.185Z,69.07
2022-10-20T11:50:08.177Z,68.77
2022-10-20T11:51:08.188Z,69.48
2022-10-20T11:52:08.156Z,70.49
2022-10-20T11:53:08.140Z,69.78
2022-10-20T11:54:08.131Z,70.39
2022-10-20T11:55:08.138Z,69.07
2022-10-20T11:56:08.109Z,70.05
2022-10-20T11:57:08.094Z,69.85
2022-10-20T11:58:08.108Z,68.63
2022-10-20T11:59:08.133Z,69.48
2022-10-20T12:00:08.141Z,68.87
2022-10-20T12:01:08.051Z,69.92
2022-10-20T12:02:08.207Z,70.83
2022-10-20T12:03:08.057Z,71.03
2022-10-20T12:04:08.018Z,71.84
2022-10-20T12:05:08.120Z,70.83
2022-10-20T12:06:10.091Z,71.03
2022-10-20T12:07:07.981Z,72.04
2022-10-20T12:08:28.185Z,70.83
2022-10-20T12:09:09.110Z,71.16
2022-10-20T12:10:07.949Z,71.16
2022-10-20T12:11:07.939Z,71.77
2022-10-20T12:12:07.925Z,71.88
2022-10-20T12:13:07.941Z,71.20
2022-10-20T12:14:07.903Z,71.91
2022-10-20T12:15:07.908Z,72.17
2022-10-20T12:16:07.886Z,72.82
2022-10-20T12:17:07.871Z,71.97
2022-10-20T12:18:07.858Z,72.08
2022-10-20T12:19:07.868Z,72.31
2022-10-20T12:20:07.836Z,72.72
2022-10-20T12:21:07.829Z,71.91
2022-10-20T12:22:07.818Z,72.31
2022-10-20T12:23:07.799Z,72.11
2022-10-20T12:24:07.810Z,72.31
2022-10-20T12:25:07.777Z,72.61
2022-10-20T12:26:07.768Z,74.00
2022-10-20T12:27:07.756Z,72.82
2022-10-20T12:28:07.747Z,72.58
2022-10-20T12:29:07.756Z,72.17
2022-10-20T12:30:07.728Z,72.58
2022-10-20T12:31:07.743Z,71.60
2022-10-20T12:32:07.701Z,72.21
2022-10-20T12:33:07.713Z,71.60
2022-10-20T12:34:07.679Z,72.11
2022-10-20T12:35:07.690Z,71.60
2022-10-20T12:36:07.660Z,72.01
2022-10-20T12:37:07.649Z,72.14
2022-10-20T12:38:07.634Z,71.91
2022-10-20T12:39:07.622Z,72.21
2022-10-20T12:40:07.612Z,72.78
2022-10-20T12:41:07.620Z,72.31
2022-10-20T12:42:07.588Z,71.70
2022-10-20T12:43:07.575Z,72.48
2022-10-20T12:44:07.572Z,72.17
2022-10-20T12:45:07.552Z,70.56
2022-10-20T12:46:07.633Z,70.05
2022-10-20T12:47:07.551Z,70.05
2022-10-20T12:48:07.519Z,70.76
2022-10-20T12:49:11.051Z,70.42
2022-10-20T12:50:07.497Z,70.05
2022-10-20T12:51:07.506Z,70.35
2022-10-20T12:52:07.478Z,70.25
2022-10-20T12:53:07.462Z,71.57
2022-10-20T12:54:07.484Z,70.25
2022-10-20T12:55:07.439Z,72.17
2022-10-20T12:56:07.429Z,70.86